createdAt,value
2017-10-01T00:00:38.470Z,11.68
2017-10-01T00:03:05.941Z,14.27
2017-10-01T00:05:33.409Z,10.63
2017-10-01T00:08:00.877Z,12.05
2017-10-01T00:10:28.341Z,10.68
2017-10-01T00:12:55.803Z,10.50
2017-10-01T00:15:23.261Z,15.05
2017-10-01T00:17:51.567Z,10.95
2017-10-01T00:20:19.090Z,16.37
2017-10-01T00:22:46.533Z,7.87
2017-10-01T00:25:14.011Z,10.93
2017-10-01T00:27:41.567Z,9.60
2017-10-01T00:30:09.129Z,12.37
2017-10-01T00:32:38.558Z,13.70
2017-10-01T00:35:06.778Z,8.65
2017-10-01T00:37:34.420Z,9.32
2017-10-01T00:40:01.936Z,11.00
2017-10-01T00:42:29.393Z,11.45
2017-10-01T00:44:57.649Z,11.02
2017-10-01T00:47:25.206Z,9.57
2017-10-01T00:49:52.685Z,9.90
2017-10-01T00:52:20.230Z,10.32
2017-10-01T00:54:49.190Z,8.65
2017-10-01T00:57:16.689Z,9.93
2017-10-01T00:59:44.145Z,11.35
2017-10-01T01:02:11.629Z,9.18
2017-10-01T01:04:39.989Z,9.32
2017-10-01T01:07:07.473Z,10.15
2017-10-01T01:09:35.698Z,10.05
2017-10-01T01:12:03.158Z,9.57
2017-10-01T01:14:30.656Z,8.13
2017-10-01T01:16:58.885Z,8.63
2017-10-01T01:19:26.355Z,10.55
2017-10-01T01:21:53.823Z,7.70
2017-10-01T01:24:21.370Z,6.45
2017-10-01T01:26:48.847Z,7.55
2017-10-01T01:29:16.385Z,10.57
2017-10-01T01:31:43.836Z,8.73
2017-10-01T01:34:11.290Z,6.85
2017-10-01T01:36:38.765Z,6.80
2017-10-01T01:39:06.329Z,6.50
2017-10-01T01:41:33.874Z,7.80
2017-10-01T01:44:01.343Z,6.50
2017-10-01T01:46:28.800Z,7.60
2017-10-01T01:48:56.255Z,7.00
2017-10-01T01:51:23.704Z,6.72
2017-10-01T01:53:51.172Z,6.15
2017-10-01T01:56:18.637Z,6.97
2017-10-01T01:58:46.090Z,7.30
2017-10-01T02:01:13.637Z,9.60
2017-10-01T02:03:41.102Z,6.60
2017-10-01T02:06:08.546Z,8.13
2017-10-01T02:08:36.004Z,6.60
2017-10-01T02:11:03.461Z,7.28
2017-10-01T02:13:30.934Z,8.48
2017-10-01T02:15:58.529Z,7.20
2017-10-01T02:18:26.764Z,7.03
2017-10-01T02:20:54.320Z,6.18
2017-10-01T02:23:21.773Z,8.70
2017-10-01T02:25:49.341Z,8.80
2017-10-01T02:28:16.805Z,6.22
2017-10-01T02:30:44.459Z,7.37
2017-10-01T02:33:11.902Z,6.22
2017-10-01T02:35:39.375Z,7.03
2017-10-01T02:38:06.929Z,6.05
2017-10-01T02:40:34.501Z,7.45
2017-10-01T02:43:03.458Z,9.18
2017-10-01T02:45:30.944Z,5.57
2017-10-01T02:47:58.466Z,5.00
2017-10-01T02:50:25.913Z,3.72
2017-10-01T02:52:53.413Z,6.30
2017-10-01T02:55:20.973Z,5.45
2017-10-01T02:57:48.538Z,6.65
2017-10-01T03:00:17.509Z,6.47
2017-10-01T03:02:44.957Z,6.25
2017-10-01T03:05:12.440Z,5.30
2017-10-01T03:07:39.909Z,4.62
2017-10-01T03:10:07.461Z,4.97
2017-10-01T03:12:34.919Z,4.50
2017-10-01T03:15:02.543Z,4.25
2017-10-01T03:17:29.978Z,4.28
2017-10-01T03:19:57.425Z,5.03
2017-10-01T03:22:25.645Z,3.80
2017-10-01T03:24:53.121Z,3.95
2017-10-01T03:27:20.577Z,4.40
2017-10-01T03:29:48.038Z,5.97
2017-10-01T03:32:15.594Z,5.37
2017-10-01T03:34:43.049Z,6.00
2017-10-01T03:37:10.605Z,7.78
2017-10-01T03:39:38.057Z,6.18
2017-10-01T03:42:05.528Z,5.82
2017-10-01T03:44:32.980Z,6.87
2017-10-01T03:47:00.449Z,9.55
2017-10-01T03:49:27.897Z,7.10
2017-10-01T03:51:55.354Z,7.62
2017-10-01T03:54:22.810Z,6.87
2017-10-01T03:56:50.265Z,9.18
2017-10-01T03:59:17.715Z,8.20
2017-10-01T04:01:45.165Z,8.65
2017-10-01T04:04:12.655Z,8.02
2017-10-01T04:06:40.109Z,8.80
2017-10-01T04:09:07.658Z,7.82
2017-10-01T04:11:35.214Z,8.77
2017-10-01T04:14:02.709Z,11.35
2017-10-01T04:16:30.945Z,9.32
2017-10-01T04:18:58.394Z,7.75
2017-10-01T04:21:25.845Z,13.15
2017-10-01T04:23:53.307Z,9.15
2017-10-01T04:26:20.762Z,10.40
2017-10-01T04:28:48.213Z,9.20
2017-10-01T04:31:15.664Z,8.93
2017-10-01T04:33:43.119Z,8.60
2017-10-01T04:36:10.625Z,11.30
2017-10-01T04:38:38.169Z,10.23
2017-10-01T04:41:05.733Z,9.93
2017-10-01T04:43:33.188Z,9.80
2017-10-01T04:46:00.665Z,8.82
2017-10-01T04:48:28.121Z,8.57
2017-10-01T04:50:55.574Z,9.07
2017-10-01T04:53:23.041Z,9.02
2017-10-01T04:55:51.258Z,8.13
2017-10-01T04:58:18.736Z,8.30
2017-10-01T05:00:46.178Z,7.18
2017-10-01T05:03:13.661Z,7.47
2017-10-01T05:05:41.120Z,8.18
2017-10-01T05:08:08.682Z,8.75
2017-10-01T05:10:36.126Z,6.37
2017-10-01T05:13:03.697Z,6.70
2017-10-01T05:15:31.153Z,10.07
2017-10-01T05:17:58.714Z,7.60
2017-10-01T05:20:26.166Z,5.07
2017-10-01T05:22:53.623Z,8.43
2017-10-01T05:25:21.192Z,8.65
2017-10-01T05:27:48.752Z,6.12
2017-10-01T05:30:16.302Z,6.43
2017-10-01T05:32:43.753Z,5.82
2017-10-01T05:35:11.233Z,8.15
2017-10-01T05:37:38.700Z,5.78
2017-10-01T05:40:06.154Z,7.45
2017-10-01T05:42:33.639Z,7.70
2017-10-01T05:45:02.048Z,9.43
2017-10-01T05:47:29.582Z,7.50
2017-10-01T05:49:57.793Z,9.25
2017-10-01T05:52:25.237Z,8.80
2017-10-01T05:54:53.397Z,8.88
2017-10-01T05:57:20.845Z,8.18
2017-10-01T05:59:48.352Z,9.43
2017-10-01T06:02:15.809Z,12.93
2017-10-01T06:04:43.297Z,9.90
2017-10-01T06:07:11.525Z,8.82
2017-10-01T06:09:38.969Z,8.75
2017-10-01T06:12:06.462Z,8.57
2017-10-01T06:14:34.018Z,9.88
2017-10-01T06:17:01.581Z,14.40
2017-10-01T06:19:29.144Z,9.23
2017-10-01T06:21:56.604Z,10.65
2017-10-01T06:24:24.069Z,6.95
2017-10-01T06:26:51.541Z,6.72
2017-10-01T06:29:19.770Z,10.43
2017-10-01T06:31:47.245Z,9.00
2017-10-01T06:34:14.704Z,8.70
2017-10-01T06:36:42.161Z,7.62
2017-10-01T06:39:09.614Z,16.48
2017-10-01T06:41:37.074Z,7.72
2017-10-01T06:44:04.614Z,8.45
2017-10-01T06:46:32.157Z,7.15
2017-10-01T06:48:59.661Z,7.57
2017-10-01T06:51:27.582Z,11.20
2017-10-01T06:53:55.174Z,8.25
2017-10-01T06:56:22.631Z,9.15
2017-10-01T06:58:50.435Z,7.18
2017-10-01T07:01:18.686Z,11.50
2017-10-01T07:03:46.257Z,9.77
2017-10-01T07:06:14.687Z,7.18
2017-10-01T07:08:42.180Z,8.43
2017-10-01T07:11:09.649Z,6.55
2017-10-01T07:13:37.914Z,9.05
2017-10-01T07:16:05.366Z,8.65
2017-10-01T07:18:32.925Z,8.18
2017-10-01T07:21:00.399Z,9.75
2017-10-01T07:23:29.794Z,12.75
2017-10-01T07:25:57.251Z,11.55
2017-10-01T07:28:24.793Z,8.82
2017-10-01T07:30:52.249Z,11.30
2017-10-01T07:33:19.722Z,9.48
2017-10-01T07:35:47.234Z,13.52
2017-10-01T07:38:14.731Z,10.38
2017-10-01T07:40:42.181Z,9.48
2017-10-01T07:43:09.668Z,13.27
2017-10-01T07:45:37.218Z,17.25
2017-10-01T07:48:04.674Z,15.85
2017-10-01T07:50:32.141Z,10.88
2017-10-01T07:52:59.755Z,17.08
2017-10-01T07:55:27.238Z,9.82
2017-10-01T07:57:54.702Z,13.73
2017-10-01T08:00:22.189Z,17.42
2017-10-01T08:02:50.420Z,10.90
2017-10-01T08:05:17.886Z,12.18
2017-10-01T08:07:45.356Z,11.98
2017-10-01T08:10:12.903Z,13.80
2017-10-01T08:12:40.365Z,14.30
2017-10-01T08:15:07.826Z,14.10
2017-10-01T08:17:35.381Z,14.05
2017-10-01T08:20:02.873Z,23.50
2017-10-01T08:22:30.314Z,12.65
2017-10-01T08:24:57.769Z,15.15
2017-10-01T08:27:26.756Z,14.20
2017-10-01T08:29:54.304Z,14.07
2017-10-01T08:32:21.769Z,15.10
2017-10-01T08:34:50.212Z,13.60
2017-10-01T08:37:17.706Z,13.65
2017-10-01T08:39:45.177Z,12.80
2017-10-01T08:42:12.625Z,13.77
2017-10-01T08:44:40.086Z,16.05
2017-10-01T08:47:07.561Z,14.95
2017-10-01T08:49:35.815Z,16.55
2017-10-01T08:52:03.278Z,15.05
2017-10-01T08:54:30.832Z,16.50
2017-10-01T08:56:58.289Z,19.80
2017-10-01T08:59:25.854Z,21.80
2017-10-01T09:01:53.401Z,23.17
2017-10-01T09:04:20.896Z,22.27
2017-10-01T09:06:49.108Z,23.50
2017-10-01T09:09:16.561Z,21.90
2017-10-01T09:11:44.021Z,23.05
2017-10-01T09:14:11.573Z,22.70
2017-10-01T09:16:39.074Z,21.65
2017-10-01T09:19:06.633Z,23.08
2017-10-01T09:21:34.094Z,20.67
2017-10-01T09:24:01.545Z,27.90
2017-10-01T09:26:29.034Z,23.12
2017-10-01T09:28:57.261Z,28.48
2017-10-01T09:31:24.717Z,21.52
2017-10-01T09:34:00.866Z,20.30
2017-10-01T09:36:28.330Z,21.70
2017-10-01T09:38:55.813Z,22.60
2017-10-01T09:41:23.369Z,21.52
2017-10-01T09:43:50.933Z,26.35
2017-10-01T09:46:18.483Z,23.10
2017-10-01T09:48:45.955Z,30.62
2017-10-01T09:51:13.412Z,28.12
2017-10-01T09:53:40.873Z,24.48
2017-10-01T09:56:08.402Z,29.02
2017-10-01T09:58:35.862Z,24.27
2017-10-01T10:01:03.437Z,22.42
2017-10-01T10:03:30.905Z,23.77
2017-10-01T10:05:58.448Z,20.48
2017-10-01T10:08:26.017Z,26.92
2017-10-01T10:10:53.578Z,24.95
2017-10-01T10:13:21.135Z,22.52
2017-10-01T10:15:48.691Z,24.08
2017-10-01T10:18:16.957Z,25.58
2017-10-01T10:20:44.516Z,20.75
2017-10-01T10:23:12.193Z,20.92
2017-10-01T10:25:39.649Z,20.12
2017-10-01T10:28:07.203Z,22.20
2017-10-01T10:30:34.694Z,16.20
2017-10-01T10:33:02.940Z,16.12
2017-10-01T10:35:30.405Z,15.80
2017-10-01T10:37:57.868Z,18.43
2017-10-01T10:40:25.325Z,18.77
2017-10-01T10:42:52.790Z,17.53
2017-10-01T10:45:21.013Z,16.93
2017-10-01T10:47:48.485Z,23.23
2017-10-01T10:50:15.956Z,16.90
2017-10-01T10:52:44.189Z,15.07
2017-10-01T10:55:11.647Z,20.23
2017-10-01T10:57:39.105Z,16.00
2017-10-01T11:00:06.670Z,15.80
2017-10-01T11:02:34.178Z,21.80
2017-10-01T11:05:01.726Z,15.70
2017-10-01T11:07:29.180Z,14.40
2017-10-01T11:09:56.808Z,16.00
2017-10-01T11:12:24.258Z,15.03
2017-10-01T11:14:51.754Z,16.53
2017-10-01T11:17:19.291Z,17.63
2017-10-01T11:19:46.745Z,16.20
2017-10-01T11:22:14.206Z,15.53
2017-10-01T11:24:41.694Z,20.23
2017-10-01T11:27:09.161Z,18.00
2017-10-01T11:29:36.731Z,18.77
2017-10-01T11:32:04.973Z,18.23
2017-10-01T11:34:32.461Z,18.20
2017-10-01T11:37:00.050Z,18.83
2017-10-01T11:39:28.302Z,20.47
2017-10-01T11:41:56.529Z,19.90
2017-10-01T11:44:24.091Z,21.33
2017-10-01T11:46:51.545Z,18.35
2017-10-01T11:49:19.047Z,21.90
2017-10-01T11:51:46.507Z,15.98
2017-10-01T11:54:14.061Z,20.30
2017-10-01T11:56:41.537Z,19.80
2017-10-01T11:59:09.795Z,23.80
2017-10-01T12:01:37.266Z,17.75
2017-10-01T12:04:05.505Z,21.05
2017-10-01T12:06:33.091Z,16.33
2017-10-01T12:09:00.590Z,22.83
2017-10-01T12:11:28.097Z,21.55
2017-10-01T12:13:55.609Z,20.95
2017-10-01T12:16:23.087Z,21.30
2017-10-01T12:18:50.806Z,14.52
2017-10-01T12:21:18.313Z,16.00
2017-10-01T12:23:45.814Z,15.47
2017-10-01T12:26:13.357Z,15.13
2017-10-01T12:28:40.936Z,15.48
2017-10-01T12:31:09.206Z,22.02
2017-10-01T12:33:36.723Z,18.53
2017-10-01T12:36:04.205Z,14.00
2017-10-01T12:38:31.666Z,15.03
2017-10-01T12:40:59.140Z,13.32
2017-10-01T12:43:27.402Z,15.30
2017-10-01T12:45:54.897Z,14.50
2017-10-01T12:48:22.478Z,11.50
2017-10-01T12:50:49.974Z,12.07
2017-10-01T12:53:17.458Z,15.07
2017-10-01T12:55:46.543Z,12.23
2017-10-01T12:58:18.861Z,17.67
2017-10-01T13:00:46.334Z,11.60
2017-10-01T13:03:13.805Z,13.52
2017-10-01T13:05:42.069Z,15.50
2017-10-01T13:08:09.546Z,15.82
2017-10-01T13:10:37.005Z,12.55
2017-10-01T13:13:04.628Z,19.30
2017-10-01T13:15:32.132Z,16.98
2017-10-01T13:18:00.360Z,12.80
2017-10-01T13:20:27.869Z,18.10
2017-10-01T13:22:55.421Z,16.92
2017-10-01T13:25:23.001Z,16.80
2017-10-01T13:27:51.217Z,17.23
2017-10-01T13:30:18.700Z,16.95
2017-10-01T13:32:46.333Z,13.40
2017-10-01T13:35:13.797Z,19.87
2017-10-01T13:37:41.292Z,17.80
2017-10-01T13:40:08.857Z,14.52
2017-10-01T13:42:36.446Z,15.85
2017-10-01T13:45:04.015Z,16.90
2017-10-01T13:47:31.479Z,18.20
2017-10-01T13:49:58.990Z,17.95
2017-10-01T13:52:26.541Z,22.35
2017-10-01T13:54:54.041Z,17.05
2017-10-01T13:57:21.505Z,17.15
2017-10-01T13:59:49.080Z,16.05
2017-10-01T14:02:16.574Z,19.52
2017-10-01T14:04:44.134Z,15.88
2017-10-01T14:07:11.720Z,15.82
2017-10-01T14:09:39.961Z,21.10
2017-10-01T14:12:07.523Z,18.10
2017-10-01T14:14:35.102Z,21.48
2017-10-01T14:17:02.574Z,17.83
2017-10-01T14:19:30.838Z,16.85
2017-10-01T14:21:58.362Z,22.30
2017-10-01T14:24:27.131Z,18.27
2017-10-01T14:26:54.609Z,16.58
2017-10-01T14:29:22.076Z,16.20
2017-10-01T14:31:49.606Z,17.85
2017-10-01T14:34:17.057Z,19.25
2017-10-01T14:36:44.581Z,16.30
2017-10-01T14:39:12.819Z,18.87
2017-10-01T14:41:40.274Z,19.37
2017-10-01T14:44:07.730Z,19.65
2017-10-01T14:46:35.306Z,15.48
2017-10-01T14:49:02.773Z,14.05
2017-10-01T14:51:30.317Z,15.98
2017-10-01T14:53:57.889Z,16.27
2017-10-01T14:56:25.509Z,15.55
2017-10-01T14:58:53.070Z,18.58
2017-10-01T15:01:20.538Z,21.40
2017-10-01T15:03:48.021Z,14.95
2017-10-01T15:06:15.544Z,15.32
2017-10-01T15:08:42.999Z,15.63
2017-10-01T15:11:10.561Z,19.05
2017-10-01T15:13:38.060Z,21.37
2017-10-01T15:16:05.614Z,15.38
2017-10-01T15:18:33.239Z,16.92
2017-10-01T15:21:00.731Z,15.32
2017-10-01T15:23:38.414Z,17.90
2017-10-01T15:26:06.689Z,16.98
2017-10-01T15:28:34.161Z,17.67
2017-10-01T15:31:01.619Z,15.60
2017-10-01T15:33:29.090Z,15.98
2017-10-01T15:35:57.016Z,14.25
2017-10-01T15:38:24.910Z,16.33
2017-10-01T15:40:52.539Z,16.87
2017-10-01T15:43:19.995Z,13.70
2017-10-01T15:45:47.480Z,16.27
2017-10-01T15:48:14.990Z,14.73
2017-10-01T15:50:43.318Z,14.30
2017-10-01T15:53:10.889Z,15.52
2017-10-01T15:55:39.210Z,16.95
2017-10-01T15:58:06.817Z,17.92
2017-10-01T16:00:34.317Z,16.02
2017-10-01T16:03:04.065Z,17.87
2017-10-01T16:05:31.554Z,18.95
2017-10-01T16:07:59.021Z,17.08
2017-10-01T16:10:26.487Z,15.40
2017-10-01T16:12:54.586Z,17.00
2017-10-01T16:15:22.821Z,13.07
2017-10-01T16:17:50.389Z,16.87
2017-10-01T16:20:17.861Z,17.27
2017-10-01T16:22:46.100Z,19.50
2017-10-01T16:25:13.820Z,20.58
2017-10-01T16:27:42.034Z,17.52
2017-10-01T16:30:09.504Z,17.55
2017-10-01T16:32:36.966Z,15.93
2017-10-01T16:35:04.458Z,20.23
2017-10-01T16:37:31.985Z,16.60
2017-10-01T16:39:59.718Z,19.50
2017-10-01T16:42:27.430Z,14.63
2017-10-01T16:44:54.939Z,18.85
2017-10-01T16:47:22.426Z,18.12
2017-10-01T16:49:50.117Z,24.60
2017-10-01T16:52:17.583Z,18.37
2017-10-01T16:54:45.815Z,17.75
2017-10-01T16:57:13.282Z,17.60
2017-10-01T16:59:40.838Z,18.12
2017-10-01T17:02:08.301Z,21.30
2017-10-01T17:04:35.872Z,19.62
2017-10-01T17:07:03.329Z,20.05
2017-10-01T17:09:30.809Z,27.52
2017-10-01T17:11:59.061Z,24.15
2017-10-01T17:14:26.573Z,20.75
2017-10-01T17:16:54.071Z,22.13
2017-10-01T17:19:21.529Z,25.20
2017-10-01T17:21:48.986Z,25.20
2017-10-01T17:24:16.866Z,22.65
2017-10-01T17:26:45.105Z,23.67
2017-10-01T17:29:12.562Z,21.62
2017-10-01T17:31:40.022Z,20.55
2017-10-01T17:34:07.598Z,23.58
2017-10-01T17:36:35.173Z,19.80
2017-10-01T17:39:03.578Z,23.35
2017-10-01T17:41:31.963Z,22.95
2017-10-01T17:44:00.261Z,27.50
2017-10-01T17:46:27.810Z,28.60
2017-10-01T17:48:55.276Z,26.33
2017-10-01T17:51:22.871Z,22.40
2017-10-01T17:53:50.333Z,24.35
2017-10-01T17:56:17.793Z,22.87
2017-10-01T17:58:45.265Z,28.48
2017-10-01T18:01:13.586Z,25.40
2017-10-01T18:03:41.088Z,23.15
2017-10-01T18:06:08.558Z,23.45
2017-10-01T18:08:36.061Z,32.42
2017-10-01T18:11:03.523Z,23.50
2017-10-01T18:13:31.017Z,23.65
2017-10-01T18:15:58.581Z,24.58
2017-10-01T18:18:26.063Z,30.65
2017-10-01T18:20:53.605Z,24.90
2017-10-01T18:23:21.154Z,24.92
2017-10-01T18:25:48.642Z,24.80
2017-10-01T18:28:16.885Z,28.00
2017-10-01T18:30:44.535Z,25.98
2017-10-01T18:33:12.074Z,31.42
2017-10-01T18:35:39.636Z,23.85
2017-10-01T18:38:07.105Z,23.50
2017-10-01T18:40:34.569Z,23.12
2017-10-01T18:43:02.026Z,26.60
2017-10-01T18:45:29.489Z,23.55
2017-10-01T18:47:56.964Z,25.20
2017-10-01T18:50:24.432Z,22.27
2017-10-01T18:52:52.037Z,24.42
2017-10-01T18:55:19.586Z,22.40
2017-10-01T18:57:47.849Z,23.05
2017-10-01T19:00:16.220Z,22.15
2017-10-01T19:02:43.709Z,26.23
2017-10-01T19:05:12.659Z,24.90
2017-10-01T19:07:40.606Z,27.92
2017-10-01T19:10:08.921Z,25.67
2017-10-01T19:12:37.342Z,30.12
2017-10-01T19:15:05.295Z,24.60
2017-10-01T19:17:33.904Z,26.35
2017-10-01T19:20:02.468Z,30.35
2017-10-01T19:22:31.010Z,26.87
2017-10-01T19:24:59.894Z,21.48
2017-10-01T19:27:28.147Z,26.98
2017-10-01T19:29:56.022Z,26.37
2017-10-01T19:32:36.790Z,29.40
2017-10-01T19:35:04.839Z,25.83
2017-10-01T19:37:35.185Z,23.38
2017-10-01T19:40:04.122Z,29.77
2017-10-01T19:45:43.941Z,28.15
2017-10-01T19:48:21.292Z,26.30
2017-10-01T19:50:52.357Z,26.87
2017-10-01T19:53:25.427Z,26.37
2017-10-01T19:58:52.031Z,30.52
2017-10-01T20:01:29.119Z,40.47
2017-10-01T20:04:06.098Z,25.98
2017-10-01T20:09:30.438Z,23.15
2017-10-01T20:12:04.552Z,31.95
2017-10-01T20:14:38.445Z,28.55
2017-10-01T20:17:26.970Z,34.60
2017-10-01T20:20:10.492Z,36.03
2017-10-01T20:22:51.620Z,34.47
2017-10-01T20:25:39.566Z,30.60
2017-10-01T20:28:07.797Z,32.80
2017-10-01T20:30:35.266Z,37.22
2017-10-01T20:33:02.755Z,31.25
2017-10-01T20:35:30.990Z,30.50
2017-10-01T20:37:58.550Z,29.12
2017-10-01T20:40:26.013Z,40.47
2017-10-01T20:42:53.566Z,28.00
2017-10-01T20:45:21.209Z,30.37
2017-10-01T20:47:48.669Z,28.77
2017-10-01T20:50:16.133Z,30.12
2017-10-01T20:52:43.610Z,28.65
2017-10-01T20:55:11.280Z,27.52
2017-10-01T20:57:38.761Z,38.05
2017-10-01T21:00:06.217Z,27.27
2017-10-01T21:02:33.725Z,33.17
2017-10-01T21:05:01.498Z,29.87
2017-10-01T21:07:29.060Z,33.55
2017-10-01T21:09:56.517Z,27.02
2017-10-01T21:12:23.973Z,28.60
2017-10-01T21:14:51.424Z,36.00
2017-10-01T21:17:18.936Z,28.70
2017-10-01T21:19:46.434Z,30.42
2017-10-01T21:22:13.897Z,29.80
2017-10-01T21:24:41.353Z,29.08
2017-10-01T21:27:08.958Z,26.62
2017-10-01T21:29:37.696Z,32.53
2017-10-01T21:32:05.237Z,29.02
2017-10-01T21:34:32.787Z,25.15
2017-10-01T21:37:00.268Z,31.00
2017-10-01T21:39:27.745Z,26.87
2017-10-01T21:41:55.205Z,27.23
2017-10-01T21:44:22.757Z,26.85
2017-10-01T21:46:50.389Z,28.25
2017-10-01T21:49:17.894Z,25.95
2017-10-01T21:51:45.405Z,29.15
2017-10-01T21:54:12.905Z,26.90
2017-10-01T21:56:40.461Z,28.00
2017-10-01T21:59:08.018Z,30.83
2017-10-01T22:01:35.577Z,26.62
2017-10-01T22:04:03.077Z,31.83
2017-10-01T22:06:30.538Z,25.55
2017-10-01T22:08:58.777Z,23.62
2017-10-01T22:11:26.314Z,26.62
2017-10-01T22:13:53.786Z,28.98
2017-10-01T22:16:21.354Z,27.73
2017-10-01T22:18:48.823Z,29.17
2017-10-01T22:21:16.306Z,27.95
2017-10-01T22:23:43.835Z,26.75
2017-10-01T22:26:11.314Z,28.05
2017-10-01T22:28:39.532Z,28.87
2017-10-01T22:31:07.058Z,33.55
2017-10-01T22:33:35.325Z,33.53
2017-10-01T22:36:03.565Z,34.88
2017-10-01T22:38:31.074Z,30.30
2017-10-01T22:40:58.529Z,33.50
2017-10-01T22:43:26.038Z,28.35
2017-10-01T22:45:53.498Z,37.15
2017-10-01T22:48:21.048Z,33.30
2017-10-01T22:50:48.537Z,33.03
2017-10-01T22:53:16.810Z,36.30
2017-10-01T22:55:44.254Z,34.25
2017-10-01T22:58:11.807Z,29.42
2017-10-01T23:00:39.360Z,32.20
2017-10-01T23:03:06.990Z,32.85
2017-10-01T23:05:34.512Z,35.95
2017-10-01T23:08:02.992Z,43.55
2017-10-01T23:10:31.206Z,33.10
2017-10-01T23:12:58.697Z,35.78
2017-10-01T23:15:26.150Z,39.20
2017-10-01T23:17:53.614Z,42.75
2017-10-01T23:20:21.069Z,45.00
2017-10-01T23:22:48.529Z,39.17
2017-10-01T23:25:16.151Z,42.83
2017-10-01T23:27:43.594Z,52.80
2017-10-01T23:30:11.106Z,42.97
2017-10-01T23:32:38.666Z,43.67
2017-10-01T23:35:06.118Z,49.17
2017-10-01T23:37:33.698Z,44.10
2017-10-01T23:40:01.256Z,45.08
2017-10-01T23:42:28.725Z,42.28
2017-10-01T23:44:56.973Z,43.05
2017-10-01T23:47:24.425Z,39.65
2017-10-01T23:49:51.877Z,41.22
2017-10-01T23:52:19.416Z,45.38
2017-10-01T23:54:46.900Z,37.08
2017-10-01T23:57:14.391Z,44.30
2017-10-01T23:59:42.645Z,43.95
